Time;durP1;ratioP1;P1;durP2;ratioP2;P2;SDS_P1;SDS_P2;PMS_P1;PMS_P2;Temp;Humidity;BMP_temperature;BMP_pressure;BME280_temperature;BME280_humidity;BME280_pressure;Samples;Min_cycle;Max_cycle;Signal;HPM_P1;HPM_P2
2022/09/09 00:01:50;;;;;;;0.20;0.20;;;15.60;99.90;;;;;;4859332;29;20133;-81
2022/09/09 00:04:27;;;;;;;0.20;0.20;;;15.60;99.90;;;;;;4875506;29;20489;-80
2022/09/09 00:06:59;;;;;;;0.20;0.20;;;15.60;99.90;;;;;;4854407;29;20069;-80
2022/09/09 00:09:28;;;;;;;0.10;0.10;;;15.50;99.90;;;;;;4857554;29;20053;-81
2022/09/09 00:12:14;;;;;;;0.17;0.17;;;15.50;99.90;;;;;;4858382;29;20473;-81
2022/09/09 00:15:01;;;;;;;0.10;0.10;;;15.50;99.90;;;;;;4857059;29;20084;-80
2022/09/09 00:17:54;;;;;;;0.20;0.20;;;15.50;99.90;;;;;;4856615;29;20140;-80
2022/09/09 00:20:45;;;;;;;0.20;0.20;;;15.40;99.90;;;;;;4857893;29;20080;-80
2022/09/09 00:23:30;;;;;;;0.20;0.20;;;15.40;99.90;;;;;;4872214;29;20405;-80
2022/09/09 00:25:59;;;;;;;0.20;0.20;;;15.30;99.90;;;;;;4855773;29;20045;-80
2022/09/09 00:28:30;;;;;;;0.20;0.20;;;15.40;99.90;;;;;;4853479;29;20108;-80
2022/09/09 00:31:10;;;;;;;0.10;0.10;;;15.30;99.90;;;;;;4864180;29;20490;-80
2022/09/09 00:33:38;;;;;;;0.10;0.10;;;15.40;99.90;;;;;;4878064;29;20057;-81
2022/09/09 00:36:15;;;;;;;0.20;0.20;;;15.40;99.90;;;;;;4878955;29;20132;-80
2022/09/09 00:38:46;;;;;;;0.15;0.15;;;15.30;99.90;;;;;;4870805;29;20141;-80
2022/09/09 00:41:50;;;;;;;0.20;0.20;;;15.30;99.90;;;;;;4858995;29;20058;-80
2022/09/09 00:44:34;;;;;;;0.20;0.20;;;15.20;99.90;;;;;;4867687;29;20485;-80
2022/09/09 00:47:21;;;;;;;0.20;0.20;;;15.20;99.90;;;;;;4878957;29;20048;-81
2022/09/09 00:50:30;;;;;;;0.10;0.10;;;15.10;99.90;;;;;;4878239;29;20462;-81
2022/09/09 00:53:20;;;;;;;0.20;0.20;;;15.10;99.90;;;;;;4858754;29;20045;-81
2022/09/09 00:56:16;;;;;;;0.20;0.20;;;15.10;99.90;;;;;;4870137;29;20398;-81
2022/09/09 00:59:05;;;;;;;0.15;0.15;;;15.00;99.90;;;;;;4855445;29;20057;-80
2022/09/09 01:01:31;;;;;;;0.20;0.20;;;15.00;99.90;;;;;;4875731;29;20048;-81
2022/09/09 01:04:00;;;;;;;0.10;0.10;;;15.00;99.90;;;;;;4860764;29;20414;-81
2022/09/09 01:06:29;;;;;;;0.20;0.20;;;15.00;99.90;;;;;;4857863;29;20048;-80
2022/09/09 01:09:22;;;;;;;0.20;0.20;;;14.90;99.90;;;;;;4857616;29;20379;-81
2022/09/09 01:11:56;;;;;;;0.20;0.20;;;15.00;99.90;;;;;;4868477;29;20053;-80
2022/09/09 01:14:34;;;;;;;0.17;0.17;;;15.00;99.90;;;;;;4877645;29;20052;-80
2022/09/09 01:17:09;;;;;;;0.20;0.20;;;15.00;99.90;;;;;;4860363;29;20052;-81
2022/09/09 01:19:44;;;;;;;0.20;0.20;;;15.00;99.90;;;;;;4863421;29;20037;-80
2022/09/09 01:22:31;;;;;;;0.20;0.20;;;15.00;99.90;;;;;;4865540;29;20064;-80
2022/09/09 01:25:18;;;;;;;0.20;0.20;;;15.00;99.90;;;;;;4862277;29;20097;-81
2022/09/09 01:27:46;;;;;;;0.10;0.10;;;15.00;99.90;;;;;;4858527;29;20053;-81
2022/09/09 01:30:15;;;;;;;0.20;0.20;;;15.10;99.90;;;;;;4878626;29;20049;-80
2022/09/09 01:32:46;;;;;;;0.20;0.20;;;15.10;99.90;;;;;;4861107;29;20394;-81
2022/09/09 01:35:42;;;;;;;0.20;0.20;;;15.00;99.90;;;;;;4859434;29;20056;-81
2022/09/09 01:38:08;;;;;;;0.10;0.10;;;15.00;99.90;;;;;;4869616;29;20052;-80
2022/09/09 01:40:34;;;;;;;0.20;0.20;;;15.00;99.90;;;;;;4859874;29;20060;-81
2022/09/09 01:43:00;;;;;;;0.20;0.20;;;14.90;99.90;;;;;;4881919;29;20041;-81
2022/09/09 01:45:26;;;;;;;0.20;0.20;;;15.00;99.90;;;;;;4861106;29;20088;-80
2022/09/09 01:47:53;;;;;;;0.10;0.10;;;14.90;99.90;;;;;;4868942;29;20049;-81
2022/09/09 01:50:19;;;;;;;0.20;0.20;;;14.80;99.90;;;;;;4877686;29;20057;-80
2022/09/09 01:52:50;;;;;;;0.20;0.20;;;14.80;99.90;;;;;;4860199;29;20048;-81
2022/09/09 01:55:16;;;;;;;0.10;0.10;;;14.70;99.90;;;;;;4860470;29;20049;-81
2022/09/09 01:58:16;;;;;;;0.20;0.20;;;14.70;99.90;;;;;;4858076;29;20049;-81
2022/09/09 02:00:51;;;;;;;0.10;0.10;;;15.10;99.90;;;;;;4875062;29;20128;-81
2022/09/09 02:03:28;;;;;;;0.10;0.10;;;14.70;99.90;;;;;;4867572;29;20133;-81
2022/09/09 02:06:08;;;;;;;0.20;0.20;;;14.60;99.90;;;;;;4859237;29;20089;-81
2022/09/09 02:08:51;;;;;;;0.20;0.20;;;14.60;99.90;;;;;;4851277;29;20544;-81
2022/09/09 02:11:23;;;;;;;0.15;0.15;;;14.60;99.90;;;;;;4875944;29;20057;-80
2022/09/09 02:13:53;;;;;;;0.20;0.20;;;14.60;99.90;;;;;;4859706;29;20048;-80
2022/09/09 02:16:59;;;;;;;0.10;0.10;;;14.60;99.90;;;;;;4875342;29;20092;-81
2022/09/09 02:19:32;;;;;;;0.20;0.20;;;14.50;99.90;;;;;;4871996;29;20057;-80
2022/09/09 02:22:00;;;;;;;0.20;0.20;;;14.50;99.90;;;;;;4875790;29;20049;-80
2022/09/09 02:24:28;;;;;;;0.20;0.20;;;14.50;99.90;;;;;;4883297;29;20413;-81
2022/09/09 02:26:57;;;;;;;0.10;0.10;;;14.40;99.90;;;;;;4874952;29;20082;-81
2022/09/09 02:29:30;;;;;;;0.20;0.20;;;14.50;99.90;;;;;;4861330;29;20084;-81
2022/09/09 02:32:01;;;;;;;0.20;0.20;;;14.50;99.90;;;;;;4856484;29;20046;-80
2022/09/09 02:34:28;;;;;;;0.20;0.20;;;14.50;99.90;;;;;;4856229;29;20044;-80
2022/09/09 02:36:57;;;;;;;0.20;0.20;;;14.50;99.90;;;;;;4874353;29;20738;-80
2022/09/09 02:39:22;;;;;;;0.20;0.20;;;14.50;99.90;;;;;;4851334;29;20060;-81
2022/09/09 02:41:48;;;;;;;0.15;0.15;;;14.40;99.90;;;;;;4858560;29;20056;-80
2022/09/09 02:44:19;;;;;;;0.13;0.13;;;14.50;99.90;;;;;;4859822;29;20075;-81
2022/09/09 02:47:33;;;;;;;0.20;0.20;;;14.50;99.90;;;;;;4866760;29;20061;-81
2022/09/09 02:50:17;;;;;;;0.20;0.20;;;14.50;99.90;;;;;;4876448;29;20064;-81
2022/09/09 02:52:46;;;;;;;0.13;0.13;;;14.50;99.90;;;;;;4874629;29;20049;-80
2022/09/09 02:55:21;;;;;;;0.10;0.10;;;14.50;99.90;;;;;;4872268;29;20045;-81
2022/09/09 02:57:48;;;;;;;0.10;0.10;;;14.50;99.90;;;;;;4855329;29;20053;-81
2022/09/09 03:00:14;;;;;;;0.20;0.20;;;14.50;99.90;;;;;;4872184;29;20033;-81
2022/09/09 03:02:40;;;;;;;0.20;0.20;;;14.50;99.90;;;;;;4872739;29;20060;-81
2022/09/09 03:05:06;;;;;;;0.20;0.20;;;14.50;99.90;;;;;;4859441;29;20037;-81
2022/09/09 03:07:32;;;;;;;0.10;0.10;;;14.50;99.90;;;;;;4857306;29;20048;-82
2022/09/09 03:09:58;;;;;;;0.20;0.20;;;14.50;99.90;;;;;;4859260;29;20040;-81
2022/09/09 03:12:24;;;;;;;0.20;0.20;;;14.60;99.90;;;;;;4877087;29;20060;-82
2022/09/09 03:14:49;;;;;;;0.20;0.20;;;14.60;99.90;;;;;;4879273;29;20513;-82
2022/09/09 03:17:15;;;;;;;0.10;0.10;;;14.60;99.90;;;;;;4862906;29;20053;-82
2022/09/09 03:19:40;;;;;;;0.20;0.20;;;14.60;99.90;;;;;;4860963;29;20055;-81
2022/09/09 03:22:08;;;;;;;0.20;0.20;;;14.60;99.90;;;;;;4878588;29;20041;-82
2022/09/09 03:24:33;;;;;;;0.10;0.10;;;14.70;99.90;;;;;;4871387;29;20663;-82
2022/09/09 03:26:59;;;;;;;0.10;0.10;;;14.70;99.90;;;;;;4875596;29;20051;-82
2022/09/09 03:29:24;;;;;;;0.20;0.20;;;14.70;99.90;;;;;;4870524;29;20446;-82
2022/09/09 03:31:50;;;;;;;0.20;0.20;;;14.80;99.90;;;;;;4856215;29;20048;-82
2022/09/09 03:34:16;;;;;;;0.20;0.20;;;14.70;99.90;;;;;;4855778;29;20498;-82
2022/09/09 03:36:42;;;;;;;0.15;0.15;;;14.80;99.90;;;;;;4874033;29;20049;-82
2022/09/09 03:39:07;;;;;;;0.20;0.20;;;14.80;99.90;;;;;;4874454;29;20056;-81
2022/09/09 03:41:34;;;;;;;0.20;0.20;;;14.80;99.90;;;;;;4857511;29;20057;-82
2022/09/09 03:43:59;;;;;;;0.20;0.20;;;14.80;99.90;;;;;;4874378;29;20068;-82
2022/09/09 03:46:26;;;;;;;0.20;0.20;;;14.80;99.90;;;;;;4857412;29;20041;-81
2022/09/09 03:48:52;;;;;;;0.10;0.10;;;14.80;99.90;;;;;;4857081;29;20088;-81
2022/09/09 03:51:18;;;;;;;0.20;0.20;;;14.90;99.90;;;;;;4854914;29;20049;-82
2022/09/09 03:53:44;;;;;;;0.20;0.20;;;14.90;99.90;;;;;;4858791;29;20044;-80
2022/09/09 03:56:10;;;;;;;0.10;0.10;;;14.90;99.90;;;;;;4858914;29;20060;-82
2022/09/09 03:58:37;;;;;;;0.13;0.13;;;14.80;99.90;;;;;;4855774;29;20544;-82
2022/09/09 04:01:14;;;;;;;0.20;0.20;;;14.80;99.90;;;;;;4854492;29;20069;-82
2022/09/09 04:03:40;;;;;;;0.20;0.20;;;14.90;99.90;;;;;;4858160;29;20083;-82
2022/09/09 04:06:09;;;;;;;0.20;0.20;;;14.90;99.90;;;;;;4875605;29;20076;-82
2022/09/09 04:08:35;;;;;;;0.20;0.20;;;14.90;99.90;;;;;;4860617;29;20070;-82
2022/09/09 04:11:06;;;;;;;0.20;0.20;;;14.90;99.90;;;;;;4879487;29;20053;-80
2022/09/09 04:13:32;;;;;;;0.20;0.20;;;15.00;99.90;;;;;;4875863;29;20060;-80
2022/09/09 04:16:00;;;;;;;0.13;0.13;;;15.00;99.90;;;;;;4861339;29;20049;-80
2022/09/09 04:18:27;;;;;;;0.20;0.20;;;15.00;99.90;;;;;;4876042;29;20124;-80
2022/09/09 04:20:57;;;;;;;0.20;0.20;;;15.00;99.90;;;;;;4874999;29;20057;-80
2022/09/09 04:23:24;;;;;;;0.10;0.10;;;15.00;99.90;;;;;;4871705;29;20048;-81
2022/09/09 04:25:52;;;;;;;0.20;0.20;;;15.00;99.90;;;;;;4878685;29;20081;-81
2022/09/09 04:28:18;;;;;;;0.20;0.20;;;15.10;99.90;;;;;;4872959;29;20056;-80
2022/09/09 04:30:45;;;;;;;0.10;0.10;;;15.10;99.90;;;;;;4858406;29;20068;-81
2022/09/09 04:33:11;;;;;;;0.10;0.10;;;15.10;99.90;;;;;;4875473;29;20072;-81
2022/09/09 04:35:38;;;;;;;0.20;0.20;;;15.10;99.90;;;;;;4877462;29;20084;-81
2022/09/09 04:38:07;;;;;;;0.20;0.20;;;15.10;99.90;;;;;;4851440;29;20064;-82
2022/09/09 04:40:33;;;;;;;0.20;0.20;;;15.00;99.90;;;;;;4856695;29;20068;-82
2022/09/09 04:42:59;;;;;;;0.20;0.20;;;15.10;99.90;;;;;;4848479;29;20053;-82
2022/09/09 04:45:25;;;;;;;0.20;0.20;;;15.10;99.90;;;;;;4854290;29;20394;-81
2022/09/09 04:47:51;;;;;;;0.20;0.20;;;15.10;99.90;;;;;;4859477;29;20143;-81
2022/09/09 04:50:17;;;;;;;0.20;0.20;;;15.10;99.90;;;;;;4877170;29;20434;-82
2022/09/09 04:52:42;;;;;;;0.20;0.20;;;15.20;99.90;;;;;;4855279;29;20064;-82
2022/09/09 04:55:09;;;;;;;0.20;0.20;;;15.10;99.90;;;;;;4876653;29;20100;-81
2022/09/09 04:57:35;;;;;;;0.20;0.20;;;15.20;99.90;;;;;;4860862;29;20135;-81
2022/09/09 05:00:01;;;;;;;0.20;0.20;;;15.20;99.90;;;;;;4860914;29;20486;-82
2022/09/09 05:02:27;;;;;;;0.10;0.10;;;15.20;99.90;;;;;;4844953;29;20052;-81
2022/09/09 05:04:52;;;;;;;0.10;0.10;;;15.20;99.90;;;;;;4853446;29;20049;-81
2022/09/09 05:07:18;;;;;;;0.10;0.10;;;15.10;99.90;;;;;;4878057;29;20098;-81
2022/09/09 05:09:45;;;;;;;0.20;0.20;;;15.20;99.90;;;;;;4865087;29;20163;-81
2022/09/09 05:12:11;;;;;;;0.10;0.10;;;15.20;99.90;;;;;;4864769;29;20076;-80
2022/09/09 05:14:37;;;;;;;0.17;0.17;;;15.20;99.90;;;;;;4889681;29;20052;-82
2022/09/09 05:17:03;;;;;;;0.17;0.17;;;15.20;99.90;;;;;;4878805;29;20041;-81
2022/09/09 05:19:30;;;;;;;0.20;0.20;;;15.20;99.90;;;;;;4860244;29;20442;-81
2022/09/09 05:21:56;;;;;;;0.20;0.20;;;15.10;99.90;;;;;;4876803;29;20052;-81
2022/09/09 05:24:23;;;;;;;0.20;0.20;;;15.10;99.90;;;;;;4875485;29;20044;-80
2022/09/09 05:26:49;;;;;;;0.20;0.20;;;15.10;99.90;;;;;;4875046;29;20057;-80
2022/09/09 05:29:14;;;;;;;0.20;0.20;;;15.10;99.90;;;;;;4864113;29;20101;-81
2022/09/09 05:31:40;;;;;;;0.10;0.10;;;15.00;99.90;;;;;;4875963;29;20045;-81
2022/09/09 05:34:06;;;;;;;0.10;0.10;;;14.90;99.90;;;;;;4858704;29;20132;-80
2022/09/09 05:36:32;;;;;;;0.10;0.10;;;15.00;99.90;;;;;;4873511;29;20135;-81
2022/09/09 05:38:58;;;;;;;0.20;0.20;;;15.00;99.90;;;;;;4855737;29;20065;-81
2022/09/09 05:41:23;;;;;;;0.10;0.10;;;15.00;99.90;;;;;;4873817;29;20560;-81
2022/09/09 05:43:49;;;;;;;0.10;0.10;;;15.00;99.90;;;;;;4875192;29;20055;-81
2022/09/09 05:46:17;;;;;;;0.20;0.20;;;15.00;99.90;;;;;;4883048;29;20184;-81
2022/09/09 05:48:47;;;;;;;0.20;0.20;;;15.00;99.90;;;;;;4876617;29;20048;-81
2022/09/09 05:51:22;;;;;;;0.20;0.20;;;14.90;99.90;;;;;;4860857;29;20053;-82
2022/09/09 05:53:48;;;;;;;0.20;0.20;;;14.90;99.90;;;;;;4857305;29;20037;-81
2022/09/09 05:56:17;;;;;;;0.20;0.20;;;15.00;99.90;;;;;;4877183;29;20037;-81
2022/09/09 05:58:43;;;;;;;0.10;0.10;;;14.90;99.90;;;;;;4876724;29;20059;-81
2022/09/09 06:01:19;;;;;;;0.10;0.10;;;14.90;99.90;;;;;;4859591;29;20053;-81
2022/09/09 06:03:45;;;;;;;0.20;0.20;;;14.90;99.90;;;;;;4874693;29;20083;-81
2022/09/09 06:06:22;;;;;;;0.10;0.10;;;15.00;99.90;;;;;;4875507;29;20056;-82
2022/09/09 06:08:50;;;;;;;0.10;0.10;;;15.00;99.90;;;;;;4875350;29;20101;-80
2022/09/09 06:11:22;;;;;;;0.20;0.20;;;15.00;99.90;;;;;;4861831;29;20374;-82
2022/09/09 06:13:47;;;;;;;;;;;15.00;99.90;;;;;;4877017;29;20051;-82
2022/09/09 06:16:16;;;;;;;0.20;0.20;;;15.00;99.90;;;;;;4875762;29;20022;-81
2022/09/09 06:18:42;;;;;;;0.10;0.10;;;15.00;99.90;;;;;;4858510;29;20497;-82
2022/09/09 06:21:15;;;;;;;0.20;0.20;;;14.90;99.90;;;;;;4855912;29;20060;-80
2022/09/09 06:23:40;;;;;;;0.20;0.20;;;14.90;99.90;;;;;;4869766;29;20516;-82
2022/09/09 06:26:07;;;;;;;0.20;0.20;;;15.00;99.90;;;;;;4868247;29;20053;-82
2022/09/09 06:28:34;;;;;;;0.10;0.10;;;14.90;99.90;;;;;;4874167;29;20557;-82
2022/09/09 06:31:05;;;;;;;0.20;0.20;;;14.90;99.90;;;;;;4853835;29;20057;-81
2022/09/09 06:33:36;;;;;;;0.20;0.20;;;15.00;99.90;;;;;;4852719;29;20060;-80
2022/09/09 06:36:04;;;;;;;0.17;0.17;;;15.00;99.90;;;;;;4858479;29;20165;-81
2022/09/09 06:38:30;;;;;;;0.22;0.22;;;15.00;99.90;;;;;;4876043;29;20057;-81
2022/09/09 06:40:58;;;;;;;0.10;0.10;;;15.00;99.90;;;;;;4854152;29;20074;-81
2022/09/09 06:43:24;;;;;;;0.20;0.20;;;15.10;99.90;;;;;;4858744;29;20040;-81
2022/09/09 06:45:58;;;;;;;0.20;0.20;;;15.10;99.90;;;;;;4871486;29;20112;-79
2022/09/09 06:48:30;;;;;;;0.20;0.20;;;15.10;99.90;;;;;;4863871;29;20747;-82
2022/09/09 06:51:08;;;;;;;0.10;0.10;;;15.20;99.90;;;;;;4872619;29;20045;-80
2022/09/09 06:53:35;;;;;;;0.10;0.10;;;15.10;99.90;;;;;;4853317;29;20573;-82
2022/09/09 06:56:11;;;;;;;0.20;0.20;;;15.10;99.90;;;;;;4858273;29;20052;-82
2022/09/09 06:58:42;;;;;;;0.20;0.20;;;15.10;99.90;;;;;;4873394;29;20131;-80
2022/09/09 07:01:09;;;;;;;0.20;0.20;;;15.10;99.90;;;;;;4856498;29;20128;-79
2022/09/09 07:03:35;;;;;;;0.20;0.20;;;15.10;99.90;;;;;;4872022;29;20115;-79
2022/09/09 07:06:01;;;;;;;0.20;0.20;;;15.10;99.90;;;;;;4875465;29;20622;-79
2022/09/09 07:08:26;;;;;;;0.10;0.10;;;15.10;99.90;;;;;;4873411;29;20489;-79
2022/09/09 07:10:53;;;;;;;0.20;0.20;;;15.20;99.90;;;;;;4872521;29;20061;-78
2022/09/09 07:13:25;;;;;;;0.20;0.20;;;15.30;99.90;;;;;;4858273;29;20052;-78
2022/09/09 07:15:51;;;;;;;;;;;15.30;99.90;;;;;;4871456;29;20044;-78
2022/09/09 07:18:16;;;;;;;0.20;0.20;;;15.30;99.90;;;;;;4858007;29;20388;-77
2022/09/09 07:20:42;;;;;;;0.10;0.10;;;15.40;99.90;;;;;;4857370;29;20060;-77
2022/09/09 07:23:11;;;;;;;0.20;0.20;;;15.50;99.90;;;;;;4874849;29;20098;-79
2022/09/09 07:25:36;;;;;;;0.10;0.10;;;15.50;99.90;;;;;;4875339;29;20127;-77
2022/09/09 07:28:03;;;;;;;0.13;0.13;;;15.50;99.90;;;;;;4875061;29;20576;-77
2022/09/09 07:30:28;;;;;;;0.20;0.20;;;15.50;99.90;;;;;;4856257;29;20104;-78
2022/09/09 07:32:56;;;;;;;0.10;0.10;;;15.50;99.90;;;;;;4873173;29;20049;-78
2022/09/09 07:35:22;;;;;;;0.20;0.20;;;15.60;99.90;;;;;;4875373;29;20392;-79
2022/09/09 07:37:48;;;;;;;0.20;0.20;;;15.40;99.90;;;;;;4872529;29;20040;-80
2022/09/09 07:40:14;;;;;;;0.15;0.15;;;15.50;99.90;;;;;;4860123;29;20060;-78
2022/09/09 07:42:40;;;;;;;0.20;0.20;;;15.50;99.90;;;;;;4855846;29;20517;-79
2022/09/09 07:45:06;;;;;;;0.13;0.13;;;15.50;99.90;;;;;;4878297;29;20076;-78
2022/09/09 07:47:31;;;;;;;0.20;0.20;;;15.60;99.90;;;;;;4854324;29;20092;-78
2022/09/09 07:49:58;;;;;;;0.20;0.20;;;15.70;99.90;;;;;;4873109;29;20070;-78
2022/09/09 07:52:24;;;;;;;0.20;0.20;;;15.80;99.90;;;;;;4852585;29;20063;-78
2022/09/09 07:54:50;;;;;;;0.10;0.10;;;15.80;99.90;;;;;;4875557;29;20037;-78
2022/09/09 07:57:16;;;;;;;0.10;0.10;;;15.90;99.90;;;;;;4874718;29;20037;-78
2022/09/09 07:59:42;;;;;;;0.10;0.10;;;15.80;99.90;;;;;;4874209;29;20033;-78
2022/09/09 08:02:09;;;;;;;0.10;0.10;;;15.90;99.90;;;;;;4872563;29;20089;-78
2022/09/09 08:04:35;;;;;;;0.10;0.10;;;15.90;99.90;;;;;;4866810;29;20048;-78
2022/09/09 08:07:01;;;;;;;0.20;0.20;;;15.90;99.90;;;;;;4868851;29;20056;-78
2022/09/09 08:09:32;;;;;;;0.10;0.10;;;15.90;99.90;;;;;;4847130;29;20166;-78
2022/09/09 08:11:58;;;;;;;0.10;0.10;;;15.90;99.90;;;;;;4851864;29;20052;-78
2022/09/09 08:14:24;;;;;;;0.10;0.10;;;16.00;99.90;;;;;;4857350;29;20049;-78
2022/09/09 08:16:50;;;;;;;0.17;0.17;;;16.10;99.90;;;;;;4855521;29;20104;-76
2022/09/09 08:19:16;;;;;;;0.20;0.20;;;16.10;99.90;;;;;;4874561;29;20084;-76
2022/09/09 08:21:43;;;;;;;0.10;0.10;;;16.10;99.90;;;;;;4845957;29;21737;-80
2022/09/09 08:24:10;;;;;;;0.20;0.20;;;16.10;99.90;;;;;;4869910;29;20045;-79
2022/09/09 08:26:41;;;;;;;0.10;0.10;;;16.20;99.90;;;;;;4856457;29;20689;-78
2022/09/09 08:29:08;;;;;;;;;;;16.20;99.90;;;;;;4857852;29;20056;-78
2022/09/09 08:31:37;;;;;;;0.20;0.20;;;16.30;99.90;;;;;;4874252;29;19924;-79
2022/09/09 08:34:03;;;;;;;0.13;0.13;;;16.40;99.90;;;;;;4854704;29;20537;-79
2022/09/09 08:36:33;;;;;;;0.10;0.10;;;16.50;99.90;;;;;;4870246;29;20096;-79
2022/09/09 08:38:59;;;;;;;0.10;0.10;;;16.50;99.90;;;;;;4869825;29;20053;-77
2022/09/09 08:41:30;;;;;;;0.20;0.20;;;16.60;99.90;;;;;;4857687;29;20099;-77
2022/09/09 08:44:24;;;;;;;0.20;0.20;;;16.60;99.90;;;;;;4855111;29;20052;-77
2022/09/09 08:47:08;;;;;;;0.20;0.20;;;16.80;99.90;;;;;;4874487;29;20053;-77
2022/09/09 08:49:55;;;;;;;0.20;0.20;;;16.90;99.90;;;;;;4875924;29;20045;-77
2022/09/09 08:52:40;;;;;;;0.20;0.20;;;17.00;99.90;;;;;;4858817;29;20120;-78
2022/09/09 08:55:44;;;;;;;0.20;0.20;;;17.10;99.90;;;;;;4875022;29;20049;-78
2022/09/09 08:58:16;;;;;;;0.20;0.20;;;17.20;99.90;;;;;;4800910;29;20154;-79
2022/09/09 09:01:09;;;;;;;0.20;0.20;;;17.20;99.90;;;;;;4869370;29;20152;-78
2022/09/09 09:03:48;;;;;;;0.20;0.20;;;17.30;99.90;;;;;;4859979;29;20053;-78
2022/09/09 09:06:39;;;;;;;0.10;0.10;;;17.30;99.90;;;;;;4854186;29;20049;-77
2022/09/09 09:09:23;;;;;;;0.20;0.20;;;17.30;99.90;;;;;;4859269;29;20049;-78
2022/09/09 09:12:00;;;;;;;0.10;0.10;;;17.50;99.90;;;;;;4857596;29;20053;-77
2022/09/09 09:14:30;;;;;;;0.20;0.20;;;17.50;99.90;;;;;;4873999;29;20048;-77
2022/09/09 09:17:20;;;;;;;0.20;0.20;;;17.50;99.90;;;;;;4856031;29;20141;-78
2022/09/09 09:19:48;;;;;;;0.13;0.13;;;17.50;99.90;;;;;;4847182;29;20053;-78
2022/09/09 09:22:32;;;;;;;0.20;0.20;;;17.60;99.90;;;;;;4870432;29;20049;-78
2022/09/09 09:25:10;;;;;;;0.10;0.10;;;17.50;99.90;;;;;;4876625;29;20067;-78
2022/09/09 09:27:39;;;;;;;0.10;0.10;;;17.40;99.90;;;;;;4856320;29;20105;-78
2022/09/09 09:30:26;;;;;;;0.20;0.20;;;17.50;99.90;;;;;;4854226;29;20054;-79
2022/09/09 09:33:02;;;;;;;0.15;0.15;;;17.60;99.90;;;;;;4845729;29;20124;-78
2022/09/09 09:35:28;;;;;;;0.10;0.10;;;17.50;99.90;;;;;;4859338;29;20053;-79
2022/09/09 09:37:54;;;;;;;0.10;0.10;;;17.50;99.90;;;;;;4859784;29;20052;-76
2022/09/09 09:40:21;;;;;;;0.20;0.20;;;17.50;99.90;;;;;;4880833;29;20060;-76
2022/09/09 09:42:59;;;;;;;0.20;0.20;;;17.60;99.90;;;;;;4853732;29;20384;-76
2022/09/09 09:45:41;;;;;;;0.10;0.10;;;17.70;99.90;;;;;;4866483;29;20052;-76
2022/09/09 09:48:11;;;;;;;0.20;0.20;;;17.70;99.90;;;;;;4870268;29;20085;-76
2022/09/09 09:50:57;;;;;;;0.20;0.20;;;17.80;99.90;;;;;;4877074;29;20045;-76
2022/09/09 09:53:27;;;;;;;0.20;0.20;;;17.90;99.90;;;;;;4876892;29;20052;-76
2022/09/09 09:56:02;;;;;;;0.20;0.20;;;18.00;99.90;;;;;;4876704;29;20053;-75
2022/09/09 09:58:33;;;;;;;0.20;0.20;;;18.10;99.90;;;;;;4875010;29;20084;-76
2022/09/09 10:01:00;;;;;;;0.20;0.20;;;18.10;99.90;;;;;;4870500;29;20079;-76
2022/09/09 10:03:40;;;;;;;0.20;0.20;;;18.20;99.90;;;;;;4874009;29;20517;-77
2022/09/09 10:06:06;;;;;;;0.10;0.10;;;18.20;99.90;;;;;;4860611;29;20049;-74
2022/09/09 10:08:45;;;;;;;0.20;0.20;;;18.20;99.90;;;;;;4873420;29;20053;-76
2022/09/09 10:11:42;;;;;;;0.20;0.20;;;18.10;99.90;;;;;;4859786;29;20481;-76
2022/09/09 10:14:42;;;;;;;0.20;0.20;;;18.20;99.90;;;;;;4857933;29;20057;-75
2022/09/09 10:17:11;;;;;;;0.20;0.20;;;18.20;99.90;;;;;;4869208;29;20120;-75
2022/09/09 10:19:39;;;;;;;0.20;0.20;;;18.20;99.90;;;;;;4874103;29;20045;-75
2022/09/09 10:22:19;;;;;;;0.20;0.20;;;18.10;99.90;;;;;;4873592;29;20049;-75
2022/09/09 10:24:48;;;;;;;0.20;0.20;;;18.30;99.90;;;;;;4871745;29;20506;-76
2022/09/09 10:27:46;;;;;;;0.20;0.20;;;18.30;99.90;;;;;;4860945;29;20088;-76
2022/09/09 10:30:16;;;;;;;0.10;0.10;;;18.30;99.90;;;;;;4872553;29;20053;-75
2022/09/09 10:33:05;;;;;;;0.20;0.20;;;18.40;99.90;;;;;;4857826;29;20041;-80
2022/09/09 10:35:59;;;;;;;0.10;0.10;;;18.40;99.90;;;;;;4855951;29;20063;-78
2022/09/09 10:38:52;;;;;;;0.15;0.15;;;18.50;99.90;;;;;;4858127;29;20053;-76
2022/09/09 10:41:42;;;;;;;0.20;0.20;;;18.60;99.90;;;;;;4872575;29;20516;-78
2022/09/09 10:44:35;;;;;;;0.20;0.20;;;18.70;99.90;;;;;;4857486;29;20048;-77
2022/09/09 10:47:16;;;;;;;0.20;0.20;;;18.70;99.90;;;;;;4869132;29;20061;-78
2022/09/09 10:49:53;;;;;;;0.20;0.20;;;18.70;99.90;;;;;;4852049;29;20064;-78
2022/09/09 10:52:30;;;;;;;0.10;0.10;;;18.70;99.90;;;;;;4850268;29;20076;-78
2022/09/09 10:54:56;;;;;;;0.20;0.20;;;18.70;99.90;;;;;;4860247;29;20152;-78
2022/09/09 10:57:31;;;;;;;0.20;0.20;;;18.60;99.90;;;;;;4870631;29;20474;-78
2022/09/09 11:00:05;;;;;;;0.20;0.20;;;18.70;99.90;;;;;;4863244;29;20490;-76
2022/09/09 11:02:32;;;;;;;;;;;18.70;99.90;;;;;;4880956;29;20112;-76
2022/09/09 11:05:16;;;;;;;0.17;0.17;;;18.70;99.90;;;;;;4872915;29;20347;-77
2022/09/09 11:08:08;;;;;;;0.10;0.10;;;18.70;99.90;;;;;;4852812;29;20120;-78
2022/09/09 11:10:42;;;;;;;0.20;0.20;;;18.70;99.90;;;;;;4860119;29;20056;-78
2022/09/09 11:13:17;;;;;;;0.20;0.20;;;18.90;99.90;;;;;;4867579;29;20053;-77
2022/09/09 11:15:49;;;;;;;0.20;0.20;;;18.90;99.90;;;;;;4854706;29;20057;-76
2022/09/09 11:18:21;;;;;;;0.20;0.20;;;18.90;99.90;;;;;;4874512;29;20108;-77
2022/09/09 11:20:50;;;;;;;0.10;0.10;;;18.90;99.90;;;;;;4858791;29;20143;-77
2022/09/09 11:23:27;;;;;;;0.20;0.20;;;18.90;99.90;;;;;;4858804;29;20442;-77
2022/09/09 11:25:57;;;;;;;0.20;0.20;;;18.90;99.90;;;;;;4866336;29;20600;-77
2022/09/09 11:29:06;;;;;;;0.20;0.20;;;18.90;99.90;;;;;;4866119;29;20461;-77
2022/09/09 11:31:46;;;;;;;0.10;0.10;;;19.00;99.90;;;;;;4868631;29;20074;-75
2022/09/09 11:34:43;;;;;;;0.20;0.20;;;19.10;99.90;;;;;;4850311;29;20494;-76
2022/09/09 11:37:20;;;;;;;0.10;0.10;;;19.30;99.90;;;;;;4836399;29;20061;-77
2022/09/09 11:40:19;;;;;;;0.10;0.10;;;19.40;99.90;;;;;;4855275;29;20049;-78
2022/09/09 11:42:47;;;;;;;0.20;0.20;;;19.70;99.90;;;;;;4855415;29;20466;-77
2022/09/09 11:45:28;;;;;;;0.20;0.20;;;19.90;99.90;;;;;;4864859;29;20135;-76
2022/09/09 11:47:59;;;;;;;0.20;0.20;;;20.20;99.90;;;;;;4873318;29;20040;-77
2022/09/09 11:50:25;;;;;;;;;;;20.30;99.90;;;;;;4889334;29;20140;-77
2022/09/09 11:53:02;;;;;;;0.20;0.20;;;20.40;99.90;;;;;;4876278;29;19975;-77
2022/09/09 11:55:49;;;;;;;0.10;0.10;;;20.50;99.90;;;;;;4856455;29;20173;-77
2022/09/09 11:58:18;;;;;;;0.20;0.20;;;20.40;99.90;;;;;;4853987;29;20626;-77
2022/09/09 12:00:48;;;;;;;0.20;0.20;;;20.30;99.90;;;;;;4858153;29;20053;-78
2022/09/09 12:03:42;;;;;;;0.20;0.20;;;20.20;99.90;;;;;;4868900;29;20053;-78
2022/09/09 12:06:26;;;;;;;0.20;0.20;;;20.20;99.90;;;;;;4858450;29;20069;-78
2022/09/09 12:08:58;;;;;;;0.20;0.20;;;20.30;99.90;;;;;;4875230;29;20049;-80
2022/09/09 12:11:26;;;;;;;0.20;0.20;;;20.60;99.90;;;;;;4874628;29;20091;-85
2022/09/09 12:13:56;;;;;;;0.20;0.20;;;20.70;99.90;;;;;;4867210;29;20049;-81
2022/09/09 12:16:38;;;;;;;0.10;0.10;;;20.80;99.90;;;;;;4874464;29;20040;-82
2022/09/09 12:19:22;;;;;;;0.20;0.20;;;20.70;99.90;;;;;;4882821;29;20037;-81
2022/09/09 12:22:15;;;;;;;0.15;0.15;;;20.60;99.90;;;;;;4856263;29;20045;-78
2022/09/09 12:24:58;;;;;;;0.20;0.20;;;20.60;99.90;;;;;;4876725;29;20597;-80
2022/09/09 12:27:33;;;;;;;0.20;0.20;;;20.50;99.90;;;;;;4862099;29;20100;-81
2022/09/09 12:30:11;;;;;;;0.20;0.20;;;20.40;99.90;;;;;;4874759;29;20068;-83
2022/09/09 12:32:37;;;;;;;0.20;0.20;;;20.40;99.90;;;;;;4859313;29;20055;-84
2022/09/09 12:35:28;;;;;;;0.40;0.40;;;20.30;99.90;;;;;;4877400;29;20609;-81
2022/09/09 12:38:02;;;;;;;0.30;0.30;;;20.30;99.90;;;;;;4848405;29;20073;-79
2022/09/09 12:40:32;;;;;;;0.20;0.20;;;20.30;99.90;;;;;;4844109;29;20306;-81
2022/09/09 12:43:20;;;;;;;0.20;0.20;;;20.40;99.90;;;;;;4844818;29;20092;-82
2022/09/09 12:45:56;;;;;;;0.47;0.47;;;20.30;99.90;;;;;;4872945;29;20059;-81
2022/09/09 12:48:33;;;;;;;0.20;0.20;;;20.60;99.90;;;;;;4880365;29;20045;-79
2022/09/09 12:51:00;;;;;;;0.20;0.20;;;20.10;99.90;;;;;;4880253;29;20746;-82
2022/09/09 12:53:35;;;;;;;0.20;0.20;;;20.10;99.90;;;;;;4867072;29;20084;-81
2022/09/09 12:56:17;;;;;;;0.20;0.20;;;20.10;99.90;;;;;;4879114;29;20414;-86
2022/09/09 12:58:47;;;;;;;0.20;0.20;;;20.10;99.90;;;;;;4863992;29;20049;-81
2022/09/09 13:01:25;;;;;;;0.13;0.13;;;20.30;99.90;;;;;;4879250;29;20041;-79
2022/09/09 13:03:52;;;;;;;0.20;0.20;;;20.50;99.90;;;;;;4860300;29;20093;-79
2022/09/09 13:06:32;;;;;;;0.10;0.10;;;20.60;99.90;;;;;;4872861;29;20108;-78
2022/09/09 13:08:59;;;;;;;0.20;0.20;;;20.60;99.90;;;;;;4868834;29;20105;-77
2022/09/09 13:11:42;;;;;;;0.20;0.20;;;20.60;99.90;;;;;;4861935;29;20557;-79
2022/09/09 13:14:20;;;;;;;0.20;0.20;;;20.80;99.90;;;;;;4876547;29;20096;-79
2022/09/09 13:16:59;;;;;;;0.20;0.20;;;20.90;99.90;;;;;;4852198;29;20048;-79
2022/09/09 13:19:28;;;;;;;0.20;0.20;;;21.00;99.90;;;;;;4861551;29;20057;-79